createdAt,value
2023-03-24T00:00:17.632Z,12.39
2023-03-24T00:01:17.590Z,12.33
2023-03-24T00:02:17.618Z,12.38
2023-03-24T00:03:17.985Z,12.38
2023-03-24T00:04:17.656Z,12.45
2023-03-24T00:05:17.589Z,12.41
2023-03-24T00:06:17.547Z,12.45
2023-03-24T00:07:17.537Z,12.38
2023-03-24T00:08:17.539Z,12.44
2023-03-24T00:09:17.523Z,12.41
2023-03-24T00:10:17.523Z,12.37
2023-03-24T00:11:17.523Z,12.45
2023-03-24T00:12:17.502Z,12.44
2023-03-24T00:13:17.486Z,12.39
2023-03-24T00:14:17.473Z,12.42
2023-03-24T00:15:17.471Z,12.29
2023-03-24T00:16:17.505Z,12.45
2023-03-24T00:17:17.453Z,12.48
2023-03-24T00:18:17.424Z,12.45
2023-03-24T00:19:17.419Z,12.51
2023-03-24T00:20:18.435Z,12.44
2023-03-24T00:21:17.407Z,12.42
2023-03-24T00:22:17.397Z,12.38
2023-03-24T00:23:17.384Z,12.37
2023-03-24T00:24:17.393Z,12.48
2023-03-24T00:25:17.368Z,12.39
2023-03-24T00:26:17.344Z,12.27
2023-03-24T00:27:17.344Z,12.39
2023-03-24T00:28:17.325Z,12.38
2023-03-24T00:29:17.347Z,12.30
2023-03-24T00:30:17.325Z,12.31
2023-03-24T00:31:17.376Z,12.33
2023-03-24T00:32:17.289Z,12.33
2023-03-24T00:33:17.288Z,12.33
2023-03-24T00:34:17.274Z,12.31
2023-03-24T00:35:17.290Z,12.33
2023-03-24T00:36:17.319Z,12.31
2023-03-24T00:37:17.250Z,12.37
2023-03-24T00:38:17.231Z,12.30
2023-03-24T00:39:17.234Z,12.27
2023-03-24T00:40:17.252Z,12.31
2023-03-24T00:41:17.204Z,12.27
2023-03-24T00:42:17.190Z,12.26
2023-03-24T00:43:17.194Z,12.29
2023-03-24T00:44:17.171Z,12.30
2023-03-24T00:45:17.184Z,12.23
2023-03-24T00:46:17.185Z,12.27
2023-03-24T00:47:17.146Z,12.19
2023-03-24T00:48:17.140Z,12.16
2023-03-24T00:49:17.137Z,12.23
2023-03-24T00:50:17.132Z,12.15
2023-03-24T00:51:17.106Z,12.21
2023-03-24T00:52:17.107Z,12.23
2023-03-24T00:53:17.091Z,12.09
2023-03-24T00:54:17.077Z,12.13
2023-03-24T00:55:17.121Z,12.11
2023-03-24T00:56:17.075Z,12.12
2023-03-24T00:57:17.052Z,12.08
2023-03-24T00:58:17.039Z,12.15
2023-03-24T00:59:17.033Z,12.05
2023-03-24T01:00:17.043Z,12.08
2023-03-24T01:01:17.061Z,12.02
2023-03-24T01:02:17.012Z,12.01
2023-03-24T01:03:17.029Z,12.06
2023-03-24T01:04:16.978Z,12.11
2023-03-24T01:05:16.979Z,12.13
2023-03-24T01:06:16.955Z,12.12
2023-03-24T01:07:16.944Z,11.97
2023-03-24T01:08:16.940Z,12.06
2023-03-24T01:09:16.921Z,12.11
2023-03-24T01:10:16.938Z,12.05
2023-03-24T01:11:16.918Z,12.06
2023-03-24T01:12:16.898Z,11.99
2023-03-24T01:13:16.875Z,11.94
2023-03-24T01:14:16.867Z,11.93
2023-03-24T01:15:16.879Z,12.02
2023-03-24T01:16:16.913Z,11.93
2023-03-24T01:17:16.842Z,11.89
2023-03-24T01:18:16.828Z,11.85
2023-03-24T01:19:16.820Z,11.93
2023-03-24T01:20:16.837Z,11.94
2023-03-24T01:21:16.797Z,11.93
2023-03-24T01:22:16.782Z,11.89
2023-03-24T01:23:16.786Z,11.94
2023-03-24T01:24:16.769Z,11.83
2023-03-24T01:25:16.801Z,11.93
2023-03-24T01:26:16.766Z,11.90
2023-03-24T01:27:16.734Z,11.90
2023-03-24T01:28:16.721Z,11.89
2023-03-24T01:29:16.717Z,11.83
2023-03-24T01:30:16.740Z,11.78
2023-03-24T01:31:16.703Z,11.90
2023-03-24T01:32:16.703Z,11.78
2023-03-24T01:33:17.687Z,11.75
2023-03-24T01:34:16.688Z,11.85
2023-03-24T01:35:16.742Z,11.89
2023-03-24T01:36:16.673Z,11.85
2023-03-24T01:37:16.670Z,11.71
2023-03-24T01:38:16.618Z,11.71
2023-03-24T01:39:17.625Z,11.78
2023-03-24T01:40:16.638Z,11.85
2023-03-24T01:41:16.720Z,11.80
2023-03-24T01:42:16.592Z,11.85
2023-03-24T01:43:16.575Z,11.82
2023-03-24T01:44:16.572Z,11.78
2023-03-24T01:45:16.585Z,11.85
2023-03-24T01:46:16.580Z,11.78
2023-03-24T01:47:16.563Z,11.82
2023-03-24T01:48:16.536Z,11.87
2023-03-24T01:49:16.521Z,11.78
2023-03-24T01:50:16.525Z,11.85
2023-03-24T01:51:16.501Z,11.85
2023-03-24T01:52:16.497Z,11.70
2023-03-24T01:53:16.484Z,11.86
2023-03-24T01:54:16.476Z,11.86
2023-03-24T01:55:16.500Z,11.85
2023-03-24T01:56:16.455Z,11.89
2023-03-24T01:57:16.438Z,11.89
2023-03-24T01:58:16.441Z,11.87
2023-03-24T01:59:16.429Z,11.89
2023-03-24T02:00:16.449Z,11.93
2023-03-24T02:01:16.418Z,11.85
2023-03-24T02:02:16.391Z,11.87
2023-03-24T02:03:16.395Z,11.93
2023-03-24T02:04:16.446Z,11.96
2023-03-24T02:05:16.413Z,11.93
2023-03-24T02:06:16.354Z,12.01
2023-03-24T02:07:16.335Z,11.94
2023-03-24T02:08:16.332Z,11.87
2023-03-24T02:09:16.321Z,11.93
2023-03-24T02:10:16.332Z,12.02
2023-03-24T02:11:16.322Z,11.94
2023-03-24T02:12:16.336Z,12.01
2023-03-24T02:13:16.283Z,11.96
2023-03-24T02:14:16.272Z,11.99
2023-03-24T02:15:16.284Z,12.01
2023-03-24T02:16:16.283Z,12.06
2023-03-24T02:17:16.248Z,12.08
2023-03-24T02:18:16.237Z,12.08
2023-03-24T02:19:16.216Z,12.01
2023-03-24T02:20:16.219Z,12.13
2023-03-24T02:21:16.216Z,12.08
2023-03-24T02:22:16.216Z,11.99
2023-03-24T02:23:16.180Z,12.04
2023-03-24T02:24:16.171Z,12.09
2023-03-24T02:25:16.165Z,12.02
2023-03-24T02:26:16.167Z,12.06
2023-03-24T02:27:16.147Z,12.05
2023-03-24T02:28:16.135Z,11.96
2023-03-24T02:29:16.123Z,11.99
2023-03-24T02:30:16.114Z,12.02
2023-03-24T02:31:16.160Z,12.13
2023-03-24T02:32:16.085Z,11.96
2023-03-24T02:33:16.082Z,12.01
2023-03-24T02:34:16.074Z,11.96
2023-03-24T02:35:16.066Z,12.06
2023-03-24T02:36:16.090Z,12.05
2023-03-24T02:37:16.045Z,11.97
2023-03-24T02:38:16.027Z,11.93
2023-03-24T02:39:16.019Z,12.02
2023-03-24T02:40:16.033Z,11.97
2023-03-24T02:41:16.041Z,12.08
2023-03-24T02:42:15.988Z,12.11
2023-03-24T02:43:15.988Z,11.97
2023-03-24T02:44:15.970Z,12.02
2023-03-24T02:45:15.960Z,12.15
2023-03-24T02:46:16.030Z,12.04
2023-03-24T02:47:15.938Z,12.04
2023-03-24T02:48:15.938Z,12.13
2023-03-24T02:49:15.916Z,12.13
2023-03-24T02:50:15.900Z,12.06
2023-03-24T02:51:15.936Z,12.09
2023-03-24T02:52:15.888Z,12.09
2023-03-24T02:53:15.888Z,12.06
2023-03-24T02:54:15.875Z,12.08
2023-03-24T02:55:15.862Z,12.08
2023-03-24T02:56:15.877Z,11.96
2023-03-24T02:57:15.838Z,12.12
2023-03-24T02:58:15.815Z,12.08
2023-03-24T02:59:15.806Z,12.05
2023-03-24T03:00:15.795Z,12.11
2023-03-24T03:01:15.884Z,12.04
2023-03-24T03:02:15.790Z,12.05
2023-03-24T03:03:15.770Z,12.09
2023-03-24T03:04:15.766Z,12.09
2023-03-24T03:05:15.742Z,12.08
2023-03-24T03:06:15.772Z,12.02
2023-03-24T03:07:15.727Z,11.99
2023-03-24T03:08:15.712Z,12.02
2023-03-24T03:09:15.719Z,11.99
2023-03-24T03:10:15.709Z,12.02
2023-03-24T03:11:15.744Z,11.97
2023-03-24T03:12:15.689Z,11.90
2023-03-24T03:13:15.683Z,11.94
2023-03-24T03:14:15.650Z,11.93
2023-03-24T03:15:15.642Z,12.02
2023-03-24T03:16:15.746Z,11.97
2023-03-24T03:17:15.668Z,11.97
2023-03-24T03:18:15.616Z,12.08
2023-03-24T03:19:15.608Z,11.97
2023-03-24T03:20:15.612Z,11.93
2023-03-24T03:21:15.675Z,11.99
2023-03-24T03:22:15.583Z,12.02
2023-03-24T03:23:15.586Z,12.04
2023-03-24T03:24:15.611Z,11.97
2023-03-24T03:25:15.562Z,11.96
2023-03-24T03:26:15.559Z,11.85
2023-03-24T03:27:15.598Z,11.93
2023-03-24T03:28:15.526Z,11.94
2023-03-24T03:29:15.515Z,11.89
2023-03-24T03:30:15.510Z,11.97
2023-03-24T03:31:15.538Z,11.97
2023-03-24T03:32:15.553Z,11.96
2023-03-24T03:33:15.488Z,11.93
2023-03-24T03:34:15.463Z,11.85
2023-03-24T03:35:15.479Z,11.94
2023-03-24T03:36:15.586Z,11.93
2023-03-24T03:37:15.434Z,11.93
2023-03-24T03:38:15.428Z,12.05
2023-03-24T03:39:15.419Z,12.02
2023-03-24T03:40:15.423Z,11.99
2023-03-24T03:41:15.417Z,11.90
2023-03-24T03:42:15.389Z,11.97
2023-03-24T03:43:15.392Z,12.02
2023-03-24T03:44:15.365Z,11.93
2023-03-24T03:45:15.352Z,11.93
2023-03-24T03:46:15.425Z,11.99
2023-03-24T03:47:15.339Z,12.01
2023-03-24T03:48:15.344Z,11.99
2023-03-24T03:49:15.317Z,11.90
2023-03-24T03:50:15.304Z,11.93
2023-03-24T03:51:15.349Z,11.94
2023-03-24T03:52:15.356Z,11.86
2023-03-24T03:53:15.282Z,11.87
2023-03-24T03:54:15.270Z,11.90
2023-03-24T03:55:15.259Z,11.83
2023-03-24T03:56:15.236Z,11.93
2023-03-24T03:57:15.269Z,11.93
2023-03-24T03:58:15.217Z,11.86
2023-03-24T03:59:15.205Z,11.96
2023-03-24T04:00:15.220Z,11.87
2023-03-24T04:01:15.190Z,11.93
2023-03-24T04:02:15.250Z,11.87
2023-03-24T04:03:15.225Z,11.85
2023-03-24T04:04:15.161Z,11.87
2023-03-24T04:05:15.183Z,11.93
2023-03-24T04:06:15.138Z,11.86
2023-03-24T04:07:15.159Z,11.80
2023-03-24T04:08:15.110Z,11.82
2023-03-24T04:09:15.102Z,11.86
2023-03-24T04:10:15.114Z,11.87
2023-03-24T04:11:15.106Z,11.87
2023-03-24T04:12:15.094Z,11.77
2023-03-24T04:13:15.066Z,11.78
2023-03-24T04:14:15.053Z,11.82
2023-03-24T04:15:15.050Z,11.86
2023-03-24T04:16:15.068Z,11.87
2023-03-24T04:17:15.024Z,11.93
2023-03-24T04:18:15.022Z,11.89
2023-03-24T04:19:15.001Z,11.83
2023-03-24T04:20:15.031Z,11.82
2023-03-24T04:21:15.027Z,11.80
2023-03-24T04:22:40.887Z,11.77
2023-03-24T04:23:14.970Z,11.83
2023-03-24T04:24:14.956Z,11.82
2023-03-24T04:25:14.950Z,11.80
2023-03-24T04:26:14.955Z,11.83
2023-03-24T04:27:14.922Z,11.86
2023-03-24T04:28:14.928Z,11.83
2023-03-24T04:29:14.920Z,11.78
2023-03-24T04:30:16.504Z,11.82
2023-03-24T04:31:15.932Z,11.85
2023-03-24T04:32:14.877Z,11.82
2023-03-24T04:33:14.876Z,11.78
2023-03-24T04:34:14.860Z,11.83
2023-03-24T04:35:14.842Z,11.82
2023-03-24T04:36:14.888Z,11.74
2023-03-24T04:37:14.836Z,11.68
2023-03-24T04:38:14.845Z,11.78
2023-03-24T04:39:14.800Z,11.77
2023-03-24T04:40:14.851Z,11.71
2023-03-24T04:41:15.730Z,11.86
2023-03-24T04:42:14.770Z,11.85
2023-03-24T04:43:14.763Z,11.82
2023-03-24T04:44:14.767Z,11.78
2023-03-24T04:45:14.760Z,11.85
2023-03-24T04:46:14.795Z,11.82
2023-03-24T04:47:14.732Z,11.80
2023-03-24T04:48:14.724Z,11.82
2023-03-24T04:49:14.709Z,11.83
2023-03-24T04:50:14.691Z,11.89
2023-03-24T04:51:14.706Z,11.80
2023-03-24T04:52:16.832Z,11.82
2023-03-24T04:53:14.660Z,11.78
2023-03-24T04:54:14.657Z,11.82
2023-03-24T04:55:14.643Z,11.85
2023-03-24T04:56:14.637Z,11.86
2023-03-24T04:57:14.643Z,11.83
2023-03-24T04:58:14.605Z,11.86
2023-03-24T04:59:14.603Z,11.82
2023-03-24T05:00:14.619Z,11.83
2023-03-24T05:01:14.630Z,11.89
2023-03-24T05:02:14.601Z,11.87
2023-03-24T05:03:14.563Z,11.94
2023-03-24T05:04:14.615Z,11.85
2023-03-24T05:05:14.564Z,11.89
2023-03-24T05:06:14.531Z,11.85
2023-03-24T05:07:14.543Z,11.86
2023-03-24T05:08:14.513Z,11.86
2023-03-24T05:09:14.512Z,11.86
2023-03-24T05:10:14.492Z,11.93
2023-03-24T05:11:14.484Z,11.83
2023-03-24T05:12:14.501Z,11.90
2023-03-24T05:13:14.463Z,11.83
2023-03-24T05:14:14.484Z,11.89
2023-03-24T05:15:14.462Z,11.86
2023-03-24T05:16:14.493Z,11.75
2023-03-24T05:17:14.445Z,11.90
2023-03-24T05:18:14.409Z,11.85
2023-03-24T05:19:14.402Z,11.86
2023-03-24T05:20:14.386Z,11.83
2023-03-24T05:21:14.376Z,11.82
2023-03-24T05:22:14.408Z,11.86
2023-03-24T05:23:14.378Z,11.87
2023-03-24T05:24:14.363Z,11.97
2023-03-24T05:25:14.343Z,11.85
2023-03-24T05:26:14.333Z,11.90
2023-03-24T05:27:14.358Z,11.96
2023-03-24T05:28:14.332Z,11.87
2023-03-24T05:29:14.333Z,11.94
2023-03-24T05:30:14.307Z,11.96
2023-03-24T05:31:14.368Z,11.90
2023-03-24T05:32:14.268Z,11.94
2023-03-24T05:33:14.342Z,11.96
2023-03-24T05:34:14.265Z,12.09
2023-03-24T05:35:14.252Z,12.02
2023-03-24T05:36:14.289Z,12.02
2023-03-24T05:37:14.251Z,12.08
2023-03-24T05:38:14.218Z,12.08
2023-03-24T05:39:14.210Z,12.11
2023-03-24T05:40:14.205Z,12.15
2023-03-24T05:41:14.186Z,12.12
2023-03-24T05:42:14.213Z,12.19
2023-03-24T05:43:14.175Z,12.20
2023-03-24T05:44:14.168Z,12.16
2023-03-24T05:45:14.166Z,12.16
2023-03-24T05:46:14.169Z,12.21
2023-03-24T05:47:14.139Z,12.16
2023-03-24T05:48:14.123Z,12.26
2023-03-24T05:49:14.117Z,12.12
2023-03-24T05:50:14.100Z,12.19
2023-03-24T05:51:14.109Z,12.27
2023-03-24T05:52:14.119Z,12.27
2023-03-24T05:53:14.082Z,12.26
2023-03-24T05:54:14.075Z,12.26
2023-03-24T05:55:14.057Z,12.20
2023-03-24T05:56:14.049Z,12.29
2023-03-24T05:57:14.058Z,12.19
2023-03-24T05:58:14.029Z,12.27
2023-03-24T05:59:14.050Z,12.27
2023-03-24T06:00:14.004Z,12.16
2023-03-24T06:01:13.994Z,12.19
2023-03-24T06:02:14.007Z,12.23
2023-03-24T06:03:14.074Z,12.24
2023-03-24T06:04:14.099Z,12.31
2023-03-24T06:05:13.956Z,12.31
2023-03-24T06:06:13.942Z,12.33
2023-03-24T06:07:13.955Z,12.31
2023-03-24T06:08:13.935Z,12.30
2023-03-24T06:09:13.917Z,12.38
2023-03-24T06:10:13.906Z,12.45
2023-03-24T06:11:13.938Z,12.30
2023-03-24T06:12:13.904Z,12.39
2023-03-24T06:13:13.943Z,12.42
2023-03-24T06:14:13.857Z,12.44
2023-03-24T06:15:13.861Z,12.39
2023-03-24T06:16:13.871Z,12.41
2023-03-24T06:17:13.846Z,12.45
2023-03-24T06:18:13.816Z,12.46
2023-03-24T06:19:13.808Z,12.48
2023-03-24T06:20:13.816Z,12.42
2023-03-24T06:21:13.785Z,12.51
2023-03-24T06:22:13.798Z,12.48
2023-03-24T06:23:13.766Z,12.54
2023-03-24T06:24:13.777Z,12.57
2023-03-24T06:25:13.752Z,12.49
2023-03-24T06:26:13.730Z,12.52
2023-03-24T06:27:13.741Z,12.41
2023-03-24T06:28:13.710Z,12.63
2023-03-24T06:29:13.710Z,12.48
2023-03-24T06:30:13.690Z,12.52
2023-03-24T06:31:13.728Z,12.51
2023-03-24T06:32:14.689Z,12.63
2023-03-24T06:33:13.739Z,12.54
2023-03-24T06:34:13.676Z,12.57
2023-03-24T06:35:13.661Z,12.54
2023-03-24T06:36:13.706Z,12.56
2023-03-24T06:37:13.638Z,12.54
2023-03-24T06:38:13.624Z,12.59
2023-03-24T06:39:13.614Z,12.56
2023-03-24T06:40:13.604Z,12.57
2023-03-24T06:41:13.599Z,12.52
2023-03-24T06:42:13.597Z,12.59
2023-03-24T06:43:13.568Z,12.60
2023-03-24T06:44:13.578Z,12.64
2023-03-24T06:45:13.555Z,12.54
2023-03-24T06:46:13.553Z,12.57
2023-03-24T06:47:13.546Z,12.56
2023-03-24T06:48:13.590Z,12.56
2023-03-24T06:49:13.535Z,12.71
2023-03-24T06:50:13.510Z,12.64
2023-03-24T06:51:13.500Z,12.64
2023-03-24T06:52:13.541Z,12.62
2023-03-24T06:53:13.471Z,12.64
2023-03-24T06:54:13.476Z,12.71
2023-03-24T06:55:13.455Z,12.62
2023-03-24T06:56:13.440Z,12.74
2023-03-24T06:57:13.515Z,12.71
2023-03-24T06:58:13.451Z,12.67
2023-03-24T06:59:13.453Z,12.70
2023-03-24T07:00:13.440Z,12.63
2023-03-24T07:01:13.476Z,12.78
2023-03-24T07:02:13.395Z,12.74
2023-03-24T07:03:13.447Z,12.67
2023-03-24T07:04:13.361Z,12.59
2023-03-24T07:05:13.360Z,12.63
2023-03-24T07:06:13.388Z,12.62
2023-03-24T07:08:34.063Z,12.62
2023-03-24T07:09:15.333Z,12.60
2023-03-24T07:10:13.303Z,12.51
2023-03-24T07:11:13.296Z,12.56
2023-03-24T07:12:14.627Z,12.60
2023-03-24T07:13:14.269Z,12.45
2023-03-24T07:14:13.277Z,12.59
2023-03-24T07:15:13.254Z,12.63
2023-03-24T07:16:13.293Z,12.59
2023-03-24T07:17:13.243Z,12.63
2023-03-24T07:18:13.301Z,12.60
2023-03-24T07:19:13.211Z,12.56
2023-03-24T07:20:13.207Z,12.66
2023-03-24T07:21:13.194Z,12.63
2023-03-24T07:22:13.199Z,12.57
2023-03-24T07:23:13.180Z,12.62
2023-03-24T07:24:13.168Z,12.54
2023-03-24T07:25:13.152Z,12.57
2023-03-24T07:26:13.139Z,12.51
2023-03-24T07:27:13.151Z,12.39
2023-03-24T07:28:13.125Z,12.44
2023-03-24T07:29:13.112Z,12.51
2023-03-24T07:30:13.123Z,12.52
2023-03-24T07:31:13.177Z,12.41
2023-03-24T07:32:13.133Z,12.41
2023-03-24T07:33:13.077Z,12.23
2023-03-24T07:34:13.059Z,12.24
2023-03-24T07:35:13.100Z,12.21
2023-03-24T07:36:13.120Z,12.15
2023-03-24T07:37:13.048Z,12.20
2023-03-24T07:38:13.030Z,12.29
2023-03-24T07:39:13.010Z,12.29
2023-03-24T07:40:13.013Z,12.31
2023-03-24T07:41:12.993Z,12.26
2023-03-24T07:42:13.133Z,12.34
2023-03-24T07:43:13.979Z,12.34
2023-03-24T07:44:12.967Z,12.30
2023-03-24T07:45:12.959Z,12.37
2023-03-24T07:46:14.032Z,12.38
2023-03-24T07:47:13.018Z,12.39
2023-03-24T07:48:12.964Z,12.44
2023-03-24T07:49:19.405Z,12.57
2023-03-24T07:50:14.908Z,12.45
2023-03-24T07:51:13.905Z,12.56
2023-03-24T07:52:13.095Z,12.60
2023-03-24T07:53:13.883Z,12.59
2023-03-24T07:54:12.902Z,12.67
2023-03-24T07:55:12.861Z,12.74
2023-03-24T07:56:12.852Z,12.78
2023-03-24T07:57:12.892Z,12.74
2023-03-24T07:58:12.834Z,12.85
2023-03-24T07:59:12.839Z,12.93
2023-03-24T08:00:12.812Z,12.95
2023-03-24T08:01:12.802Z,12.88
2023-03-24T08:02:12.843Z,12.99
2023-03-24T08:03:12.875Z,12.92
2023-03-24T08:04:12.907Z,13.00
2023-03-24T08:05:12.967Z,13.06
2023-03-24T08:06:12.752Z,13.06
2023-03-24T08:07:12.974Z,13.12
2023-03-24T08:08:12.727Z,13.03
2023-03-24T08:09:12.723Z,13.14
2023-03-24T08:10:12.713Z,13.11
2023-03-24T08:11:12.710Z,13.07
2023-03-24T08:12:20.002Z,13.09
2023-03-24T08:13:14.695Z,13.17
2023-03-24T08:14:12.673Z,13.15
2023-03-24T08:15:12.689Z,13.24
2023-03-24T08:16:12.686Z,13.29
2023-03-24T08:17:12.642Z,13.24
2023-03-24T08:18:12.660Z,13.24
2023-03-24T08:19:12.625Z,13.40
2023-03-24T08:20:12.660Z,13.38
2023-03-24T08:21:12.618Z,13.40
2023-03-24T08:22:12.605Z,13.44
2023-03-24T08:23:13.594Z,13.46
2023-03-24T08:24:12.570Z,13.44
2023-03-24T08:25:12.571Z,13.37
2023-03-24T08:26:12.567Z,13.37
2023-03-24T08:27:12.541Z,13.41
2023-03-24T08:28:12.564Z,13.41
2023-03-24T08:29:12.526Z,13.46
2023-03-24T08:30:12.531Z,13.37
2023-03-24T08:31:12.602Z,13.32
2023-03-24T08:32:12.515Z,13.27
2023-03-24T08:33:12.729Z,13.40
2023-03-24T08:34:12.481Z,13.27
2023-03-24T08:35:12.530Z,13.25
2023-03-24T08:36:12.504Z,13.14
2023-03-24T08:37:12.464Z,13.18
2023-03-24T08:38:12.443Z,13.15
2023-03-24T08:39:12.431Z,13.11
2023-03-24T08:40:12.423Z,13.07
2023-03-24T08:41:12.423Z,12.99
2023-03-24T08:42:12.428Z,13.04
2023-03-24T08:43:12.448Z,12.87
2023-03-24T08:44:12.384Z,12.89
2023-03-24T08:45:12.377Z,12.92
2023-03-24T08:46:14.032Z,13.00
2023-03-24T08:47:13.366Z,12.99
2023-03-24T08:48:12.390Z,12.96
2023-03-24T08:49:12.330Z,13.03
2023-03-24T08:50:12.333Z,13.07
2023-03-24T08:51:12.309Z,12.95
2023-03-24T08:52:12.327Z,13.03
2023-03-24T08:53:12.319Z,13.09
2023-03-24T08:54:12.279Z,13.11
2023-03-24T08:55:12.277Z,13.06
2023-03-24T08:56:12.261Z,13.03
2023-03-24T08:57:12.318Z,13.09
2023-03-24T08:58:12.250Z,13.02
2023-03-24T08:59:12.230Z,13.09
2023-03-24T09:00:13.216Z,13.02
2023-03-24T09:01:12.224Z,13.06
2023-03-24T09:02:12.200Z,13.06
2023-03-24T09:03:12.255Z,13.06
2023-03-24T09:04:12.185Z,13.21
2023-03-24T09:05:12.168Z,13.21
2023-03-24T09:06:12.277Z,13.17
2023-03-24T09:07:12.153Z,13.27
2023-03-24T09:08:12.163Z,13.30
2023-03-24T09:09:12.129Z,13.32
2023-03-24T09:10:12.122Z,13.33
2023-03-24T09:11:12.145Z,13.30
2023-03-24T09:12:12.114Z,13.40
2023-03-24T09:13:12.104Z,13.40
2023-03-24T09:14:12.088Z,13.54
2023-03-24T09:15:13.374Z,13.55
2023-03-24T09:16:13.108Z,13.51
2023-03-24T09:17:12.065Z,13.56
2023-03-24T09:18:12.066Z,13.69
2023-03-24T09:19:12.052Z,13.69
2023-03-24T09:20:12.030Z,13.80
2023-03-24T09:21:12.025Z,13.80
2023-03-24T09:22:12.011Z,13.83
2023-03-24T09:23:12.028Z,13.91
2023-03-24T09:24:11.995Z,13.89
2023-03-24T09:25:11.984Z,13.95
2023-03-24T09:26:11.984Z,14.07
2023-03-24T09:27:11.989Z,14.16
2023-03-24T09:28:11.974Z,14.21
2023-03-24T09:29:11.940Z,14.24
2023-03-24T09:30:11.945Z,14.02
2023-03-24T09:31:11.942Z,14.16
2023-03-24T09:32:11.917Z,14.20
2023-03-24T09:33:11.928Z,14.31
2023-03-24T09:34:11.906Z,14.24
2023-03-24T09:35:11.876Z,14.28
2023-03-24T09:36:11.959Z,14.37
2023-03-24T09:37:11.855Z,14.43
2023-03-24T09:38:11.854Z,14.39
2023-03-24T09:39:11.830Z,14.27
2023-03-24T09:40:11.814Z,14.29
2023-03-24T09:41:11.809Z,14.34
2023-03-24T09:42:11.800Z,14.35
2023-03-24T09:43:11.809Z,14.50
2023-03-24T09:44:11.778Z,14.35
2023-03-24T09:45:11.775Z,14.49
2023-03-24T09:46:11.800Z,14.38
2023-03-24T09:47:11.754Z,14.31
2023-03-24T09:48:11.818Z,14.04
2023-03-24T09:49:11.725Z,13.87
2023-03-24T09:50:11.724Z,13.84
2023-03-24T09:51:11.783Z,13.62
2023-03-24T09:52:11.704Z,13.59
2023-03-24T09:53:11.703Z,13.52
2023-03-24T09:54:11.701Z,13.43
2023-03-24T09:55:11.669Z,13.25
2023-03-24T09:56:11.662Z,13.24
2023-03-24T09:57:11.687Z,13.17
2023-03-24T09:58:11.654Z,13.03
2023-03-24T09:59:11.632Z,13.04
2023-03-24T10:00:11.620Z,12.96
2023-03-24T10:01:11.640Z,12.89
2023-03-24T10:02:11.595Z,12.82
2023-03-24T10:03:11.668Z,12.74
2023-03-24T10:04:11.697Z,12.63
2023-03-24T10:05:11.585Z,12.51
2023-03-24T10:06:11.569Z,12.54
2023-03-24T10:07:11.557Z,12.46
2023-03-24T10:08:11.562Z,12.45
2023-03-24T10:09:11.531Z,12.41
2023-03-24T10:10:11.574Z,12.37
2023-03-24T10:11:11.512Z,12.41
2023-03-24T10:12:11.518Z,12.45
2023-03-24T10:13:11.507Z,12.48
2023-03-24T10:14:11.489Z,12.49
2023-03-24T10:15:11.484Z,12.52
2023-03-24T10:16:11.488Z,12.49
2023-03-24T10:17:11.464Z,12.54
2023-03-24T10:18:11.479Z,12.56
2023-03-24T10:19:11.556Z,12.64
2023-03-24T10:20:12.436Z,12.62
2023-03-24T10:21:11.416Z,12.59
2023-03-24T10:22:11.421Z,12.59
2023-03-24T10:23:39.302Z,12.51
2023-03-24T10:24:11.399Z,12.54
2023-03-24T10:25:11.390Z,12.66
2023-03-24T10:26:11.428Z,12.67
2023-03-24T10:27:11.372Z,12.66
2023-03-24T10:28:11.357Z,12.75
2023-03-24T10:29:11.356Z,12.75
2023-03-24T10:30:11.341Z,12.82
2023-03-24T10:31:11.361Z,12.78
2023-03-24T10:32:11.324Z,12.84
2023-03-24T10:33:11.370Z,12.92
2023-03-24T10:34:11.304Z,12.96
2023-03-24T10:35:11.300Z,13.00
2023-03-24T10:36:11.333Z,13.04
2023-03-24T10:37:11.276Z,13.09
2023-03-24T10:38:11.311Z,13.17
2023-03-24T10:39:19.060Z,13.22
2023-03-24T10:40:13.257Z,13.32
2023-03-24T10:41:11.235Z,13.38
2023-03-24T10:42:11.227Z,13.32
2023-03-24T10:43:11.241Z,13.24
2023-03-24T10:44:11.206Z,13.15
2023-03-24T10:45:11.210Z,13.24
2023-03-24T10:46:11.222Z,13.18
2023-03-24T10:47:11.173Z,13.07
2023-03-24T10:48:11.202Z,13.15
2023-03-24T10:49:11.163Z,13.02
2023-03-24T10:50:12.826Z,13.17
2023-03-24T10:51:11.148Z,13.21
2023-03-24T10:52:11.131Z,13.17
2023-03-24T10:53:11.138Z,13.30
2023-03-24T10:54:11.135Z,13.25
2023-03-24T10:55:11.116Z,13.29
2023-03-24T10:56:11.090Z,13.38
2023-03-24T10:57:11.110Z,13.37
2023-03-24T10:58:11.083Z,13.47
2023-03-24T10:59:11.065Z,13.49
2023-03-24T11:00:11.058Z,13.49
2023-03-24T11:01:11.116Z,13.51
2023-03-24T11:02:11.092Z,13.51
2023-03-24T11:03:11.128Z,13.43
2023-03-24T11:04:11.011Z,13.47
2023-03-24T11:05:11.139Z,13.52
2023-03-24T11:06:10.989Z,13.52
2023-03-24T11:07:10.979Z,13.63
2023-03-24T11:08:10.980Z,13.76
2023-03-24T11:09:10.970Z,13.79
2023-03-24T11:10:10.947Z,13.91
2023-03-24T11:11:10.955Z,13.81
2023-03-24T11:12:10.926Z,13.88
2023-03-24T11:13:10.932Z,13.80
2023-03-24T11:14:10.901Z,14.01
2023-03-24T11:15:20.353Z,14.10
2023-03-24T11:16:12.926Z,13.94
2023-03-24T11:17:10.929Z,13.87
2023-03-24T11:18:10.898Z,13.73
2023-03-24T11:19:10.897Z,13.77
2023-03-24T11:20:10.875Z,13.83
2023-03-24T11:21:10.833Z,13.91
2023-03-24T11:22:10.822Z,13.79
2023-03-24T11:23:10.841Z,13.70
2023-03-24T11:24:10.805Z,13.62
2023-03-24T11:25:10.828Z,13.59
2023-03-24T11:26:10.798Z,13.62
2023-03-24T11:27:10.788Z,13.54
2023-03-24T11:28:10.765Z,13.54
2023-03-24T11:29:10.789Z,13.46
2023-03-24T11:30:10.740Z,13.40
2023-03-24T11:31:10.809Z,13.27
2023-03-24T11:32:10.730Z,13.24
2023-03-24T11:33:10.754Z,13.32
2023-03-24T11:34:10.721Z,13.20
2023-03-24T11:35:10.694Z,13.09
2023-03-24T11:36:10.910Z,13.14
2023-03-24T11:37:10.669Z,13.06
2023-03-24T11:38:10.662Z,13.14
2023-03-24T11:39:10.705Z,13.12
2023-03-24T11:40:10.667Z,13.02
2023-03-24T11:41:10.639Z,13.02
2023-03-24T11:42:10.675Z,13.15
2023-03-24T11:43:10.648Z,13.15
2023-03-24T11:44:10.607Z,13.21
2023-03-24T11:45:10.655Z,13.20
2023-03-24T11:46:10.673Z,13.24
2023-03-24T11:47:11.575Z,13.21
2023-03-24T11:48:10.590Z,13.25
2023-03-24T11:49:10.569Z,13.24
2023-03-24T11:50:10.583Z,13.24
2023-03-24T11:51:10.551Z,13.24
2023-03-24T11:52:10.535Z,13.24
2023-03-24T11:53:11.574Z,13.24
2023-03-24T11:54:10.510Z,13.21
2023-03-24T11:55:10.549Z,13.32
2023-03-24T11:56:10.489Z,13.41
2023-03-24T11:57:10.518Z,13.49
2023-03-24T11:58:10.501Z,13.51
2023-03-24T11:59:10.473Z,13.65
2023-03-24T12:00:10.474Z,13.67
2023-03-24T12:01:10.433Z,13.79
2023-03-24T12:02:10.433Z,13.74
2023-03-24T12:03:10.504Z,13.81
2023-03-24T12:04:10.433Z,13.81
2023-03-24T12:05:10.463Z,13.77
2023-03-24T12:06:10.446Z,13.98
2023-03-24T12:07:10.381Z,14.02
2023-03-24T12:08:10.393Z,14.24
2023-03-24T12:09:10.367Z,14.19
2023-03-24T12:10:10.346Z,14.16
2023-03-24T12:11:10.342Z,14.21
2023-03-24T12:12:10.328Z,14.21
2023-03-24T12:13:18.774Z,14.35
2023-03-24T12:14:12.341Z,14.20
2023-03-24T12:15:24.500Z,14.31
2023-03-24T12:16:12.385Z,14.32
2023-03-24T12:17:10.301Z,14.37
2023-03-24T12:18:10.283Z,14.53
2023-03-24T12:19:10.288Z,14.60
2023-03-24T12:20:10.246Z,14.61
2023-03-24T12:21:10.234Z,14.65
2023-03-24T12:22:10.234Z,14.65
2023-03-24T12:23:10.225Z,14.64
2023-03-24T12:24:10.220Z,14.65
2023-03-24T12:25:10.209Z,14.91
2023-03-24T12:26:10.188Z,15.03
2023-03-24T12:27:10.198Z,15.13
2023-03-24T12:28:10.202Z,15.08
2023-03-24T12:29:10.179Z,15.09
2023-03-24T12:30:10.158Z,14.95
2023-03-24T12:31:10.184Z,14.99
2023-03-24T12:32:10.133Z,14.99
2023-03-24T12:33:10.118Z,15.20
2023-03-24T12:34:10.134Z,15.35
2023-03-24T12:35:10.100Z,15.46
2023-03-24T12:36:10.118Z,15.52
2023-03-24T12:37:10.099Z,15.21
2023-03-24T12:38:10.075Z,15.30
2023-03-24T12:39:10.087Z,15.38
2023-03-24T12:40:10.273Z,15.49
2023-03-24T12:41:10.039Z,15.46
2023-03-24T12:42:10.034Z,15.48
2023-03-24T12:43:10.020Z,15.31
2023-03-24T12:44:10.035Z,15.20
2023-03-24T12:45:10.003Z,15.21
2023-03-24T12:46:10.024Z,15.12
2023-03-24T12:47:09.980Z,15.35
2023-03-24T12:48:10.056Z,15.41
2023-03-24T12:49:09.984Z,15.64
2023-03-24T12:50:09.957Z,15.76
2023-03-24T12:51:09.947Z,15.57
2023-03-24T12:52:09.929Z,15.51
2023-03-24T12:53:11.012Z,15.42